Time;durP1;ratioP1;P1;durP2;ratioP2;P2;SDS_P1;SDS_P2;PMS_P1;PMS_P2;Temp;Humidity;BMP_temperature;BMP_pressure;BME280_temperature;BME280_humidity;BME280_pressure;Samples;Min_cycle;Max_cycle;Signal;HPM_P1;HPM_P2
2022/10/22 00:00:41;;;;;;;42.42;16.95;;;;;;;;;;6286697;28;20225;-63
2022/10/22 00:04:01;;;;;;;39.38;16.17;;;;;;;;;;6287617;28;20049;-62
2022/10/22 00:07:02;;;;;;;44.15;17.33;;;;;;;;;;6286020;28;20082;-62
2022/10/22 00:10:04;;;;;;;37.28;15.95;;;;;;;;;;6286876;28;20044;-62
2022/10/22 00:13:05;;;;;;;;;;;;;;;;;;6289576;28;20044;-62
2022/10/22 00:16:06;;;;;;;38.85;16.10;;;;;;;;;;6286502;28;19981;-61
2022/10/22 00:19:08;;;;;;;37.50;16.17;;;;;;;;;;6289670;28;20045;-62
2022/10/22 00:22:09;;;;;;;43.53;16.85;;;;;;;;;;6289845;28;20355;-62
2022/10/22 00:25:09;;;;;;;38.87;16.13;;;;;;;;;;6286948;28;20040;-62
2022/10/22 00:28:10;;;;;;;40.83;16.98;;;;;;;;;;6287006;28;20407;-63
2022/10/22 00:31:11;;;;;;;43.88;15.70;;;;;;;;;;6286224;28;20554;-64
2022/10/22 00:34:11;;;;;;;39.55;16.45;;;;;;;;;;6287224;28;20516;-63
2022/10/22 00:37:12;;;;;;;36.42;16.08;;;;;;;;;;6287408;28;20052;-63
2022/10/22 00:40:13;;;;;;;37.85;16.02;;;;;;;;;;6291107;28;20056;-63
2022/10/22 00:43:16;;;;;;;36.50;15.73;;;;;;;;;;6290602;28;20048;-63
2022/10/22 00:46:17;;;;;;;39.72;16.35;;;;;;;;;;6286713;28;20642;-63
2022/10/22 00:49:17;;;;;;;38.75;16.38;;;;;;;;;;6287365;28;20042;-63
2022/10/22 00:52:18;;;;;;;37.83;16.20;;;;;;;;;;6291710;28;20040;-63
2022/10/22 00:55:20;;;;;;;36.35;15.50;;;;;;;;;;6287752;28;20058;-63
2022/10/22 00:58:28;;;;;;;37.47;15.37;;;;;;;;;;6287338;28;20040;-62
2022/10/22 01:01:30;;;;;;;35.88;15.30;;;;;;;;;;6286908;28;20109;-63
2022/10/22 01:04:31;;;;;;;;;;;;;;;;;;6287000;28;20133;-63
2022/10/22 01:07:38;;;;;;;40.10;16.10;;;;;;;;;;6285285;28;20318;-63
2022/10/22 01:10:54;;;;;;;38.65;16.98;;;;;;;;;;6287341;28;20049;-63
2022/10/22 01:14:13;;;;;;;39.33;14.73;;;;;;;;;;6291146;28;20052;-63
2022/10/22 01:17:39;;;;;;;38.50;15.20;;;;;;;;;;6288531;28;20052;-64
2022/10/22 01:21:01;;;;;;;37.42;16.25;;;;;;;;;;6286153;28;20119;-62
2022/10/22 01:24:26;;;;;;;39.28;16.80;;;;;;;;;;6285688;28;21341;-63
2022/10/22 01:27:48;;;;;;;39.38;16.33;;;;;;;;;;6280886;28;20048;-63
2022/10/22 01:30:52;;;;;;;38.97;17.17;;;;;;;;;;6284813;28;20066;-63
2022/10/22 01:33:53;;;;;;;44.75;18.42;;;;;;;;;;6285527;28;20151;-63
2022/10/22 01:36:55;;;;;;;40.90;16.90;;;;;;;;;;6286963;28;20048;-63
2022/10/22 01:39:59;;;;;;;45.70;17.38;;;;;;;;;;6288457;28;20573;-63
2022/10/22 01:43:03;;;;;;;37.88;16.75;;;;;;;;;;6287427;28;20460;-63
2022/10/22 01:46:05;;;;;;;45.25;18.95;;;;;;;;;;6289765;28;20059;-63
2022/10/22 01:49:31;;;;;;;40.83;17.67;;;;;;;;;;6286331;28;20044;-63
2022/10/22 01:52:58;;;;;;;44.92;18.52;;;;;;;;;;6286873;28;20135;-63
2022/10/22 01:56:23;;;;;;;43.13;18.88;;;;;;;;;;6284887;28;20059;-63
2022/10/22 01:59:43;;;;;;;41.40;16.95;;;;;;;;;;6284712;28;20040;-62
2022/10/22 02:03:00;;;;;;;38.15;16.98;;;;;;;;;;6289355;28;20136;-63
2022/10/22 02:06:09;;;;;;;44.88;19.67;;;;;;;;;;6285932;28;20499;-63
2022/10/22 02:09:13;;;;;;;39.75;16.80;;;;;;;;;;6284617;28;20048;-63
2022/10/22 02:12:16;;;;;;;40.88;16.13;;;;;;;;;;6284623;28;20147;-63
2022/10/22 02:15:19;;;;;;;37.53;16.63;;;;;;;;;;6284323;28;20041;-63
2022/10/22 02:18:24;;;;;;;38.15;16.52;;;;;;;;;;6286342;28;20058;-63
2022/10/22 02:21:25;;;;;;;40.85;16.15;;;;;;;;;;6284401;28;20049;-63
2022/10/22 02:24:27;;;;;;;42.65;16.60;;;;;;;;;;6282731;28;20082;-62
2022/10/22 02:27:59;;;;;;;38.58;16.77;;;;;;;;;;6283638;28;20044;-63
2022/10/22 02:31:08;;;;;;;38.70;16.77;;;;;;;;;;6284790;28;20067;-63
2022/10/22 02:34:13;;;;;;;41.70;17.50;;;;;;;;;;6284117;28;20052;-63
2022/10/22 02:37:15;;;;;;;40.60;18.33;;;;;;;;;;6285370;28;20057;-62
2022/10/22 02:40:17;;;;;;;41.45;16.77;;;;;;;;;;6288348;28;20057;-63
2022/10/22 02:43:18;;;;;;;41.22;18.25;;;;;;;;;;6285655;28;20174;-63
2022/10/22 02:46:19;;;;;;;40.60;17.40;;;;;;;;;;6285080;28;20127;-63
2022/10/22 02:49:20;;;;;;;44.05;16.85;;;;;;;;;;6286378;28;20552;-63
2022/10/22 02:52:20;;;;;;;41.70;17.83;;;;;;;;;;6283911;28;20048;-63
2022/10/22 02:55:21;;;;;;;46.05;18.02;;;;;;;;;;6284294;28;20958;-62
2022/10/22 02:58:21;;;;;;;41.85;17.85;;;;;;;;;;6289463;28;20055;-63
2022/10/22 03:01:22;;;;;;;40.08;17.42;;;;;;;;;;6290865;28;20047;-63
2022/10/22 03:04:23;;;;;;;45.15;17.42;;;;;;;;;;6287750;28;20531;-62
2022/10/22 03:07:24;;;;;;;47.78;18.35;;;;;;;;;;6289952;28;20083;-63
2022/10/22 03:10:24;;;;;;;43.20;18.17;;;;;;;;;;6289014;28;20411;-63
2022/10/22 03:13:25;;;;;;;41.45;18.60;;;;;;;;;;6294498;28;20056;-63
2022/10/22 03:16:25;;;;;;;43.17;18.38;;;;;;;;;;6290841;28;20045;-63
2022/10/22 03:19:26;;;;;;;52.13;18.65;;;;;;;;;;6290150;28;20222;-62
2022/10/22 03:22:28;;;;;;;46.38;19.25;;;;;;;;;;6293945;28;20041;-63
2022/10/22 03:25:33;;;;;;;46.13;19.65;;;;;;;;;;6290057;28;20518;-62
2022/10/22 03:28:35;;;;;;;47.72;19.08;;;;;;;;;;6289999;28;20082;-62
2022/10/22 03:31:36;;;;;;;46.25;20.10;;;;;;;;;;6291550;28;20175;-62
2022/10/22 03:34:36;;;;;;;46.83;19.17;;;;;;;;;;6285798;28;20453;-62
2022/10/22 03:37:38;;;;;;;46.35;19.10;;;;;;;;;;6288811;28;20106;-62
2022/10/22 03:40:41;;;;;;;50.17;19.43;;;;;;;;;;6289577;28;20056;-62
2022/10/22 03:43:41;;;;;;;46.55;20.67;;;;;;;;;;6290613;28;20493;-63
2022/10/22 03:46:42;;;;;;;46.65;19.77;;;;;;;;;;6289814;28;20052;-63
2022/10/22 03:49:43;;;;;;;49.47;19.88;;;;;;;;;;6288621;28;20080;-63
2022/10/22 03:52:43;;;;;;;49.90;19.65;;;;;;;;;;6286768;28;20045;-63
2022/10/22 03:55:44;;;;;;;47.10;19.27;;;;;;;;;;6284546;28;20362;-62
2022/10/22 03:58:44;;;;;;;54.33;21.13;;;;;;;;;;6295862;28;20167;-62
2022/10/22 04:01:45;;;;;;;45.15;19.48;;;;;;;;;;6292158;28;20044;-63
2022/10/22 04:04:45;;;;;;;54.03;20.63;;;;;;;;;;6289076;28;20041;-63
2022/10/22 04:07:46;;;;;;;49.20;20.20;;;;;;;;;;6288506;28;20111;-62
2022/10/22 04:10:51;;;;;;;51.25;19.23;;;;;;;;;;6292256;28;20083;-63
2022/10/22 04:13:51;;;;;;;58.40;20.55;;;;;;;;;;6290413;28;20094;-62
2022/10/22 04:16:52;;;;;;;46.70;19.27;;;;;;;;;;6285970;28;20048;-62
2022/10/22 04:19:52;;;;;;;49.08;18.92;;;;;;;;;;6288678;28;20568;-62
2022/10/22 04:22:53;;;;;;;42.35;17.98;;;;;;;;;;6286859;28;20043;-62
2022/10/22 04:25:58;;;;;;;40.88;17.77;;;;;;;;;;6286817;28;20782;-62
2022/10/22 04:28:59;;;;;;;40.15;17.42;;;;;;;;;;6288932;28;20086;-62
2022/10/22 04:31:59;;;;;;;46.50;18.23;;;;;;;;;;6286458;28;20052;-62
2022/10/22 04:35:00;;;;;;;41.38;18.15;;;;;;;;;;6285633;28;20056;-62
2022/10/22 04:38:00;;;;;;;41.67;17.85;;;;;;;;;;6287601;28;20049;-62
2022/10/22 04:41:09;;;;;;;46.05;19.10;;;;;;;;;;6286689;28;20108;-62
2022/10/22 04:44:10;;;;;;;43.50;19.63;;;;;;;;;;6285185;28;20052;-62
2022/10/22 04:47:10;;;;;;;42.40;17.30;;;;;;;;;;6287913;28;20506;-63
2022/10/22 04:50:11;;;;;;;39.70;17.50;;;;;;;;;;6287789;28;20792;-62
2022/10/22 04:53:11;;;;;;;49.90;18.73;;;;;;;;;;6286949;28;20063;-63
2022/10/22 04:56:20;;;;;;;50.60;19.25;;;;;;;;;;6286367;28;20099;-62
2022/10/22 04:59:20;;;;;;;52.65;21.75;;;;;;;;;;6288160;28;20048;-62
2022/10/22 05:02:21;;;;;;;52.63;23.77;;;;;;;;;;6285932;28;20075;-62
2022/10/22 05:05:21;;;;;;;50.75;21.10;;;;;;;;;;6288554;28;20063;-62
2022/10/22 05:08:22;;;;;;;49.95;20.10;;;;;;;;;;6290183;28;20048;-62
2022/10/22 05:11:27;;;;;;;46.53;19.20;;;;;;;;;;6287446;28;20044;-62
2022/10/22 05:14:27;;;;;;;48.65;20.17;;;;;;;;;;6285129;28;20084;-63
2022/10/22 05:17:28;;;;;;;50.45;19.60;;;;;;;;;;6284646;28;20044;-63
2022/10/22 05:20:28;;;;;;;47.25;18.60;;;;;;;;;;6290518;28;20140;-62
2022/10/22 05:23:29;;;;;;;46.20;19.08;;;;;;;;;;6286939;28;20502;-62
2022/10/22 05:26:30;;;;;;;84.65;39.60;;;;;;;;;;6281034;28;20101;-62
2022/10/22 05:29:30;;;;;;;80.65;37.35;;;;;;;;;;6285309;28;20134;-63
2022/10/22 05:32:34;;;;;;;84.50;38.13;;;;;;;;;;6288589;28;20052;-61
2022/10/22 05:35:34;;;;;;;49.67;21.77;;;;;;;;;;6285963;28;20055;-62
2022/10/22 05:38:35;;;;;;;59.42;21.67;;;;;;;;;;6286697;28;20406;-62
2022/10/22 05:41:36;;;;;;;47.25;21.15;;;;;;;;;;6286829;28;20056;-62
2022/10/22 05:44:37;;;;;;;50.92;19.98;;;;;;;;;;6283617;28;20178;-62
2022/10/22 05:47:38;;;;;;;46.33;18.45;;;;;;;;;;6287320;28;20048;-62
2022/10/22 05:50:38;;;;;;;45.00;18.75;;;;;;;;;;6287412;28;20076;-61
2022/10/22 05:53:41;;;;;;;42.10;17.52;;;;;;;;;;6286569;28;20518;-62
2022/10/22 05:56:42;;;;;;;43.70;17.42;;;;;;;;;;6285669;28;20052;-63
2022/10/22 05:59:42;;;;;;;42.65;17.42;;;;;;;;;;6285791;28;20381;-62
2022/10/22 06:02:43;;;;;;;99.50;39.58;;;;;;;;;;6285004;28;20562;-62
2022/10/22 06:05:43;;;;;;;48.35;19.02;;;;;;;;;;6288108;28;20063;-62
2022/10/22 06:08:46;;;;;;;55.80;23.90;;;;;;;;;;6286259;28;20049;-62
2022/10/22 06:11:47;;;;;;;51.63;22.77;;;;;;;;;;6290232;28;20094;-64
2022/10/22 06:14:48;;;;;;;48.53;18.90;;;;;;;;;;6290872;28;20464;-64
2022/10/22 06:17:48;;;;;;;51.10;16.88;;;;;;;;;;6283686;28;20045;-63
2022/10/22 06:20:49;;;;;;;44.95;17.67;;;;;;;;;;6280155;28;20041;-64
2022/10/22 06:23:49;;;;;;;40.28;16.83;;;;;;;;;;6285887;28;20045;-64
2022/10/22 06:26:51;;;;;;;46.75;17.15;;;;;;;;;;6286406;28;20110;-64
2022/10/22 06:29:51;;;;;;;42.07;17.13;;;;;;;;;;6282677;28;21568;-63
2022/10/22 06:32:52;;;;;;;38.03;16.88;;;;;;;;;;6283925;28;20163;-65
2022/10/22 06:35:53;;;;;;;46.08;16.85;;;;;;;;;;6287449;28;20102;-63
2022/10/22 06:38:54;;;;;;;41.08;17.38;;;;;;;;;;6290820;28;20507;-62
2022/10/22 06:41:55;;;;;;;42.43;17.10;;;;;;;;;;6286885;28;20082;-63
2022/10/22 06:44:55;;;;;;;42.40;16.67;;;;;;;;;;6284019;28;20305;-63
2022/10/22 06:47:56;;;;;;;41.35;16.45;;;;;;;;;;6283556;28;20037;-63
2022/10/22 06:51:00;;;;;;;36.08;15.98;;;;;;;;;;6284729;28;20094;-64
2022/10/22 06:54:01;;;;;;;43.38;16.38;;;;;;;;;;6284978;28;20087;-66
2022/10/22 06:57:01;;;;;;;54.65;20.40;;;;;;;;;;6283767;28;20643;-65
2022/10/22 07:00:04;;;;;;;45.20;17.45;;;;;;;;;;6288869;28;20052;-66
2022/10/22 07:03:05;;;;;;;46.45;20.90;;;;;;;;;;6284724;28;20139;-67
2022/10/22 07:06:08;;;;;;;38.60;16.25;;;;;;;;;;6280599;28;20102;-66
2022/10/22 07:09:09;;;;;;;48.25;19.65;;;;;;;;;;6283518;28;20105;-65
2022/10/22 07:12:10;;;;;;;42.83;15.40;;;;;;;;;;6287860;28;20045;-66
2022/10/22 07:15:11;;;;;;;42.53;16.57;;;;;;;;;;6290923;28;20098;-67
2022/10/22 07:18:11;;;;;;;41.92;16.17;;;;;;;;;;6284589;28;20048;-66
2022/10/22 07:21:14;;;;;;;39.95;16.10;;;;;;;;;;6285266;28;20053;-66
2022/10/22 07:24:15;;;;;;;40.35;17.38;;;;;;;;;;6283866;28;20056;-64
2022/10/22 07:27:15;;;;;;;41.10;18.15;;;;;;;;;;6289651;28;20158;-65
2022/10/22 07:30:16;;;;;;;46.00;18.17;;;;;;;;;;6283800;28;20048;-66
2022/10/22 07:33:16;;;;;;;44.20;17.67;;;;;;;;;;6273568;28;20126;-66
2022/10/22 07:36:17;;;;;;;43.53;17.90;;;;;;;;;;6284940;28;20050;-66
2022/10/22 07:39:18;;;;;;;43.28;17.27;;;;;;;;;;6287815;28;20512;-65
2022/10/22 07:42:18;;;;;;;43.63;17.40;;;;;;;;;;6285552;28;20045;-65
2022/10/22 07:45:19;;;;;;;41.13;18.05;;;;;;;;;;6288521;28;20056;-63
2022/10/22 07:48:19;;;;;;;43.97;18.35;;;;;;;;;;6293065;28;20538;-63
2022/10/22 07:51:20;;;;;;;49.35;17.52;;;;;;;;;;6290954;28;20083;-66
2022/10/22 07:54:21;;;;;;;43.55;17.73;;;;;;;;;;6289337;28;20546;-66
2022/10/22 07:57:21;;;;;;;40.00;17.33;;;;;;;;;;6291430;28;20109;-65
2022/10/22 08:00:22;;;;;;;44.50;17.45;;;;;;;;;;6290204;28;20067;-65
2022/10/22 08:03:23;;;;;;;46.50;17.45;;;;;;;;;;6288897;28;20166;-65
2022/10/22 08:06:23;;;;;;;43.22;17.92;;;;;;;;;;6291042;28;20048;-66
2022/10/22 08:09:24;;;;;;;43.47;17.98;;;;;;;;;;6285492;28;20081;-66
2022/10/22 08:12:24;;;;;;;39.90;17.08;;;;;;;;;;6288841;28;20402;-65
2022/10/22 08:15:26;;;;;;;40.58;16.45;;;;;;;;;;6285322;28;20063;-65
2022/10/22 08:18:27;;;;;;;41.15;17.33;;;;;;;;;;6291229;28;20049;-66
2022/10/22 08:21:27;;;;;;;40.25;17.13;;;;;;;;;;6289438;28;20139;-65
2022/10/22 08:24:28;;;;;;;41.72;17.77;;;;;;;;;;6291649;28;20041;-67
2022/10/22 08:27:29;;;;;;;50.17;18.60;;;;;;;;;;6291493;28;20578;-66
2022/10/22 08:30:29;;;;;;;40.70;17.92;;;;;;;;;;6290194;28;20036;-65
2022/10/22 08:33:30;;;;;;;40.05;16.30;;;;;;;;;;6288815;28;20043;-65
2022/10/22 08:36:30;;;;;;;41.03;18.55;;;;;;;;;;6288272;28;20044;-64
2022/10/22 08:39:31;;;;;;;51.28;18.20;;;;;;;;;;6287593;28;20070;-63
2022/10/22 08:42:49;;;;;;;53.05;19.58;;;;;;;;;;6285814;28;20053;-66
2022/10/22 08:45:54;;;;;;;62.20;19.50;;;;;;;;;;6286341;28;20173;-67
2022/10/22 08:48:59;;;;;;;46.80;18.63;;;;;;;;;;6287359;28;20047;-67
2022/10/22 08:52:00;;;;;;;47.25;18.95;;;;;;;;;;6286883;28;20993;-66
2022/10/22 08:55:01;;;;;;;43.28;19.10;;;;;;;;;;6289075;28;20089;-64
2022/10/22 08:58:02;;;;;;;52.45;20.02;;;;;;;;;;6286805;28;20070;-63
2022/10/22 09:01:13;;;;;;;43.03;18.50;;;;;;;;;;6286616;28;20044;-63
2022/10/22 09:04:29;;;;;;;40.10;18.83;;;;;;;;;;6287479;28;20055;-63
2022/10/22 09:07:30;;;;;;;44.67;18.88;;;;;;;;;;6286365;28;20396;-66
2022/10/22 09:10:35;;;;;;;47.05;18.80;;;;;;;;;;6287349;28;20048;-65
2022/10/22 09:13:36;;;;;;;43.85;18.52;;;;;;;;;;6287723;28;20487;-64
2022/10/22 09:16:49;;;;;;;43.90;18.65;;;;;;;;;;6292407;28;20051;-67
2022/10/22 09:20:22;;;;;;;43.40;18.52;;;;;;;;;;6284968;28;20044;-66
2022/10/22 09:23:35;;;;;;;43.10;18.65;;;;;;;;;;6288262;28;20044;-65
2022/10/22 09:26:38;;;;;;;45.35;17.75;;;;;;;;;;6290226;28;20407;-65
2022/10/22 09:29:39;;;;;;;43.72;18.67;;;;;;;;;;6292268;28;20063;-65
2022/10/22 09:32:39;;;;;;;47.80;18.73;;;;;;;;;;6290540;28;20483;-64
2022/10/22 09:36:04;;;;;;;44.80;19.13;;;;;;;;;;6292626;28;20075;-67
2022/10/22 09:39:21;;;;;;;48.75;18.10;;;;;;;;;;6288898;28;20823;-66
2022/10/22 09:42:22;;;;;;;55.63;19.58;;;;;;;;;;6291976;28;20108;-66
2022/10/22 09:45:26;;;;;;;49.47;18.60;;;;;;;;;;6290757;28;20044;-66
2022/10/22 09:48:30;;;;;;;82.95;31.10;;;;;;;;;;6289998;28;20368;-66
2022/10/22 09:51:52;;;;;;;56.30;21.15;;;;;;;;;;6292175;28;20057;-66
2022/10/22 09:54:53;;;;;;;51.95;19.50;;;;;;;;;;6291820;28;20140;-66
2022/10/22 09:57:57;;;;;;;46.20;18.10;;;;;;;;;;6285775;28;20041;-67
2022/10/22 10:00:59;;;;;;;51.53;19.63;;;;;;;;;;6286699;28;20070;-65
2022/10/22 10:04:09;;;;;;;49.47;19.25;;;;;;;;;;6288286;28;20048;-66
2022/10/22 10:07:17;;;;;;;50.00;19.95;;;;;;;;;;6290318;28;20071;-67
2022/10/22 10:10:32;;;;;;;62.95;22.00;;;;;;;;;;6284797;28;20052;-65
2022/10/22 10:14:02;;;;;;;47.15;20.08;;;;;;;;;;6289646;28;20052;-66
2022/10/22 10:17:12;;;;;;;55.47;21.58;;;;;;;;;;6279144;28;20054;-68
2022/10/22 10:20:47;;;;;;;48.97;19.20;;;;;;;;;;6289508;28;20049;-64
2022/10/22 10:24:11;;;;;;;45.15;19.75;;;;;;;;;;6290129;28;20396;-67
2022/10/22 10:27:37;;;;;;;47.03;19.35;;;;;;;;;;6290678;28;20067;-65
2022/10/22 10:30:50;;;;;;;49.05;20.83;;;;;;;;;;6289334;28;20094;-62
2022/10/22 10:34:16;;;;;;;48.95;19.80;;;;;;;;;;6290477;28;20044;-65
2022/10/22 10:37:24;;;;;;;51.45;21.40;;;;;;;;;;6288798;28;20052;-67
2022/10/22 10:40:49;;;;;;;47.45;20.67;;;;;;;;;;6290680;28;20154;-66
2022/10/22 10:44:26;;;;;;;49.20;21.50;;;;;;;;;;6291446;28;20779;-64
2022/10/22 10:47:48;;;;;;;62.13;23.95;;;;;;;;;;6291001;28;20442;-65
2022/10/22 10:51:19;;;;;;;57.97;23.88;;;;;;;;;;6289923;28;20149;-64
2022/10/22 10:55:17;;;;;;;66.18;26.85;;;;;;;;;;6289827;28;20062;-67
2022/10/22 10:58:46;;;;;;;100.25;38.03;;;;;;;;;;6267466;28;20148;-66
2022/10/22 11:02:24;;;;;;;106.03;42.83;;;;;;;;;;6268728;28;20475;-66
2022/10/22 11:05:40;;;;;;;66.72;26.55;;;;;;;;;;6263299;28;20090;-64
2022/10/22 11:08:53;;;;;;;61.50;24.83;;;;;;;;;;6263802;28;20059;-67
2022/10/22 11:11:58;;;;;;;61.28;25.08;;;;;;;;;;6264177;28;20090;-65
2022/10/22 11:15:26;;;;;;;63.30;26.65;;;;;;;;;;6265133;28;20072;-66
2022/10/22 11:18:36;;;;;;;69.50;26.58;;;;;;;;;;6261250;28;20056;-65
2022/10/22 11:21:59;;;;;;;71.78;28.63;;;;;;;;;;6269615;28;20159;-67
2022/10/22 11:25:12;;;;;;;67.93;27.60;;;;;;;;;;6269982;28;20067;-64
2022/10/22 11:28:24;;;;;;;67.90;26.60;;;;;;;;;;6265386;28;20075;-67
2022/10/22 11:31:25;;;;;;;65.72;25.30;;;;;;;;;;6269628;28;20097;-64
2022/10/22 11:34:58;;;;;;;66.27;27.57;;;;;;;;;;6270347;28;20071;-67
2022/10/22 11:37:59;;;;;;;76.88;29.90;;;;;;;;;;6253163;28;20060;-65
2022/10/22 11:41:05;;;;;;;140.43;62.88;;;;;;;;;;6268604;28;20090;-65
2022/10/22 11:44:10;;;;;;;104.10;45.95;;;;;;;;;;6266643;28;20068;-67
2022/10/22 11:47:23;;;;;;;84.88;37.28;;;;;;;;;;6265919;28;20057;-65
2022/10/22 11:50:41;;;;;;;;;;;;;;;;;;6273655;28;20102;-63
2022/10/22 11:53:42;;;;;;;76.65;29.35;;;;;;;;;;6270293;28;20019;-66
2022/10/22 11:56:43;;;;;;;73.93;29.48;;;;;;;;;;6267672;28;20632;-65
2022/10/22 11:59:56;;;;;;;63.20;27.25;;;;;;;;;;6267332;28;20036;-65
2022/10/22 12:03:22;;;;;;;66.50;25.70;;;;;;;;;;6267970;28;20627;-63
2022/10/22 12:06:27;;;;;;;80.35;31.13;;;;;;;;;;6261780;28;20059;-64
2022/10/22 12:09:31;;;;;;;73.00;32.30;;;;;;;;;;6268213;28;20066;-64
2022/10/22 12:12:37;;;;;;;72.90;28.52;;;;;;;;;;6265080;28;20144;-64
2022/10/22 12:15:47;;;;;;;72.07;29.15;;;;;;;;;;6266926;28;20047;-67
2022/10/22 12:18:48;;;;;;;71.13;29.58;;;;;;;;;;6265267;28;20049;-64
2022/10/22 12:22:11;;;;;;;72.07;29.03;;;;;;;;;;6269565;28;20060;-67
2022/10/22 12:25:20;;;;;;;73.43;28.23;;;;;;;;;;6265490;28;20316;-64
2022/10/22 12:28:21;;;;;;;70.15;27.63;;;;;;;;;;6267545;28;20056;-64
2022/10/22 12:31:22;;;;;;;67.60;27.37;;;;;;;;;;6267121;28;20113;-63
2022/10/22 12:34:24;;;;;;;74.15;28.92;;;;;;;;;;6265677;28;20049;-64
2022/10/22 12:37:24;;;;;;;68.82;27.70;;;;;;;;;;6266063;28;20189;-66
2022/10/22 12:40:32;;;;;;;68.57;27.13;;;;;;;;;;6266124;28;20491;-64
2022/10/22 12:43:32;;;;;;;65.60;27.50;;;;;;;;;;6267960;28;20730;-63
2022/10/22 12:46:34;;;;;;;66.43;26.63;;;;;;;;;;6264438;28;20053;-63
2022/10/22 12:49:41;;;;;;;66.75;25.80;;;;;;;;;;6267884;28;20143;-63
2022/10/22 12:52:41;;;;;;;63.80;25.63;;;;;;;;;;6267965;28;20045;-67
2022/10/22 12:55:45;;;;;;;67.55;31.58;;;;;;;;;;6265436;28;20497;-64
2022/10/22 12:58:58;;;;;;;67.30;26.35;;;;;;;;;;6265545;28;20163;-64
2022/10/22 13:01:59;;;;;;;69.38;25.55;;;;;;;;;;6268361;28;20060;-63
2022/10/22 13:05:19;;;;;;;73.15;29.88;;;;;;;;;;6269816;28;20506;-67
2022/10/22 13:08:22;;;;;;;77.32;31.08;;;;;;;;;;6264803;28;20054;-63
2022/10/22 13:11:31;;;;;;;63.42;25.85;;;;;;;;;;6265936;28;20098;-63
2022/10/22 13:14:37;;;;;;;69.55;29.80;;;;;;;;;;6266058;28;20532;-64
2022/10/22 13:17:40;;;;;;;73.75;27.65;;;;;;;;;;6262415;28;20102;-66
2022/10/22 13:21:00;;;;;;;72.28;30.30;;;;;;;;;;6267291;28;20139;-64
2022/10/22 13:24:18;;;;;;;73.35;30.60;;;;;;;;;;6265808;28;20055;-63
2022/10/22 13:27:19;;;;;;;76.03;28.88;;;;;;;;;;6265297;28;20143;-62
2022/10/22 13:30:23;;;;;;;75.13;32.63;;;;;;;;;;6266259;28;20057;-62
2022/10/22 13:33:42;;;;;;;65.68;27.00;;;;;;;;;;6269075;28;20052;-63
2022/10/22 13:36:42;;;;;;;68.00;26.65;;;;;;;;;;6262886;28;20049;-62
2022/10/22 13:39:43;;;;;;;66.00;27.35;;;;;;;;;;6266273;28;20494;-62
2022/10/22 13:42:44;;;;;;;73.28;27.92;;;;;;;;;;6264555;28;20045;-62
2022/10/22 13:45:46;;;;;;;71.50;28.52;;;;;;;;;;6267391;28;20052;-63
2022/10/22 13:48:48;;;;;;;68.93;27.67;;;;;;;;;;6265763;28;20048;-63
2022/10/22 13:51:50;;;;;;;71.93;27.52;;;;;;;;;;6263570;28;20053;-63
2022/10/22 13:54:50;;;;;;;73.57;29.58;;;;;;;;;;6266822;28;20045;-62
2022/10/22 13:57:56;;;;;;;75.65;33.80;;;;;;;;;;6262716;28;20049;-65
2022/10/22 14:00:59;;;;;;;60.97;27.17;;;;;;;;;;6263460;28;20052;-64
2022/10/22 14:04:03;;;;;;;86.53;40.05;;;;;;;;;;6265021;28;20127;-63
2022/10/22 14:07:11;;;;;;;97.00;44.88;;;;;;;;;;6264178;28;20067;-62
2022/10/22 14:10:13;;;;;;;95.85;44.75;;;;;;;;;;6265554;28;20756;-63
2022/10/22 14:13:15;;;;;;;94.28;42.97;;;;;;;;;;6262839;28;20095;-65
2022/10/22 14:16:21;;;;;;;;;;;;;;;;;;6266301;28;20045;-63
2022/10/22 14:19:22;;;;;;;81.03;29.85;;;;;;;;;;6265567;28;20002;-62
2022/10/22 14:22:25;;;;;;;85.68;33.63;;;;;;;;;;6264416;28;20056;-62
2022/10/22 14:25:26;;;;;;;87.88;33.45;;;;;;;;;;6264375;28;20047;-62
2022/10/22 14:28:27;;;;;;;86.63;32.30;;;;;;;;;;6261917;28;20049;-64
2022/10/22 14:31:28;;;;;;;125.78;46.70;;;;;;;;;;6265358;28;20403;-63
2022/10/22 14:34:28;;;;;;;108.25;44.00;;;;;;;;;;6265631;28;20052;-64
2022/10/22 14:37:29;;;;;;;119.95;50.08;;;;;;;;;;6264823;28;20543;-63
2022/10/22 14:40:29;;;;;;;108.35;42.75;;;;;;;;;;6265889;28;20079;-62
2022/10/22 14:43:30;;;;;;;92.57;37.03;;;;;;;;;;6264694;28;20067;-63
2022/10/22 14:46:31;;;;;;;105.32;40.42;;;;;;;;;;6264366;28;20076;-63
2022/10/22 14:49:31;;;;;;;117.50;44.58;;;;;;;;;;6267023;28;21545;-61
2022/10/22 14:52:33;;;;;;;108.97;40.42;;;;;;;;;;6266962;28;20048;-61
2022/10/22 14:55:33;;;;;;;107.80;41.65;;;;;;;;;;6272111;28;20558;-62
2022/10/22 14:58:34;;;;;;;120.57;48.10;;;;;;;;;;6269735;28;20052;-62
2022/10/22 15:01:34;;;;;;;122.85;48.33;;;;;;;;;;6270108;28;20058;-63
2022/10/22 15:04:35;;;;;;;111.05;39.92;;;;;;;;;;6268849;28;20135;-63
2022/10/22 15:07:35;;;;;;;140.00;53.38;;;;;;;;;;6270261;28;20049;-62
2022/10/22 15:10:36;;;;;;;154.25;59.60;;;;;;;;;;6267012;28;20060;-63
2022/10/22 15:13:38;;;;;;;134.57;49.17;;;;;;;;;;6268920;28;20081;-65
2022/10/22 15:16:38;;;;;;;111.72;41.28;;;;;;;;;;6270327;28;20053;-61
2022/10/22 15:19:39;;;;;;;105.30;40.75;;;;;;;;;;6270304;28;20561;-61
2022/10/22 15:22:39;;;;;;;118.05;43.13;;;;;;;;;;6267198;28;20048;-61
2022/10/22 15:25:42;;;;;;;118.63;43.92;;;;;;;;;;6268645;28;20668;-61
2022/10/22 15:28:43;;;;;;;108.15;39.42;;;;;;;;;;6268481;28;20067;-61
2022/10/22 15:31:49;;;;;;;97.25;40.15;;;;;;;;;;6268422;28;20049;-62
2022/10/22 15:34:51;;;;;;;98.40;38.03;;;;;;;;;;6267677;28;20044;-62
2022/10/22 15:37:52;;;;;;;103.03;41.05;;;;;;;;;;6270723;28;20041;-64
2022/10/22 15:41:19;;;;;;;106.97;39.95;;;;;;;;;;6268808;28;20678;-65
2022/10/22 15:44:28;;;;;;;105.15;39.83;;;;;;;;;;6262925;28;20055;-62
2022/10/22 15:47:30;;;;;;;98.38;37.78;;;;;;;;;;6271264;28;20148;-62
2022/10/22 15:50:31;;;;;;;102.20;38.60;;;;;;;;;;6268995;28;20055;-61
2022/10/22 15:53:31;;;;;;;102.07;39.08;;;;;;;;;;6270988;28;20795;-60
2022/10/22 15:56:32;;;;;;;102.60;37.42;;;;;;;;;;6267331;28;20718;-61
2022/10/22 15:59:33;;;;;;;108.20;41.45;;;;;;;;;;6268883;28;20048;-61
2022/10/22 16:02:34;;;;;;;107.75;41.65;;;;;;;;;;6267827;28;20127;-62
2022/10/22 16:05:34;;;;;;;126.90;50.45;;;;;;;;;;6267057;28;20123;-61
2022/10/22 16:08:36;;;;;;;111.22;45.85;;;;;;;;;;6266703;28;20137;-63
2022/10/22 16:11:38;;;;;;;102.32;39.72;;;;;;;;;;6269569;28;20150;-65
2022/10/22 16:14:38;;;;;;;115.30;44.28;;;;;;;;;;6269721;28;20447;-63
2022/10/22 16:17:39;;;;;;;98.78;37.75;;;;;;;;;;6265597;28;20048;-62
2022/10/22 16:20:40;;;;;;;103.53;39.40;;;;;;;;;;6270589;28;20053;-63
2022/10/22 16:23:41;;;;;;;104.57;39.87;;;;;;;;;;6268226;28;20045;-62
2022/10/22 16:26:42;;;;;;;110.40;40.50;;;;;;;;;;6263570;28;20562;-61
2022/10/22 16:29:42;;;;;;;110.63;42.33;;;;;;;;;;6268757;28;20059;-62
2022/10/22 16:32:43;;;;;;;138.13;54.58;;;;;;;;;;6269582;28;20654;-64
2022/10/22 16:35:43;;;;;;;141.73;51.85;;;;;;;;;;6268222;28;20136;-62
2022/10/22 16:38:45;;;;;;;134.75;51.50;;;;;;;;;;6264802;28;20554;-62
2022/10/22 16:41:46;;;;;;;140.70;55.25;;;;;;;;;;6266490;28;20486;-62
2022/10/22 16:44:46;;;;;;;122.07;50.90;;;;;;;;;;6267713;28;20566;-62
2022/10/22 16:47:48;;;;;;;131.20;54.00;;;;;;;;;;6266030;28;20052;-65
2022/10/22 16:50:48;;;;;;;123.50;50.63;;;;;;;;;;6267641;28;20045;-62
2022/10/22 16:53:53;;;;;;;122.20;49.72;;;;;;;;;;6268125;28;20064;-62
2022/10/22 16:56:53;;;;;;;127.72;51.28;;;;;;;;;;6264745;28;20040;-66
2022/10/22 16:59:54;;;;;;;105.53;39.03;;;;;;;;;;6267369;28;20154;-63
2022/10/22 17:02:55;;;;;;;105.07;37.55;;;;;;;;;;6267928;28;20059;-64
2022/10/22 17:05:57;;;;;;;103.60;38.75;;;;;;;;;;6266759;28;20095;-62
2022/10/22 17:08:57;;;;;;;;;;;;;;;;;;6267429;28;20110;-62
2022/10/22 17:11:58;;;;;;;107.22;41.30;;;;;;;;;;6265868;28;20330;-61
2022/10/22 17:14:59;;;;;;;99.57;36.17;;;;;;;;;;6263248;28;20651;-63
2022/10/22 17:17:59;;;;;;;107.70;38.40;;;;;;;;;;6265064;28;20168;-61
2022/10/22 17:21:00;;;;;;;108.63;39.67;;;;;;;;;;6267700;28;20049;-62
2022/10/22 17:24:01;;;;;;;100.70;38.03;;;;;;;;;;6267576;28;20148;-64
2022/10/22 17:27:01;;;;;;;101.63;36.60;;;;;;;;;;6263360;28;20041;-61
2022/10/22 17:30:03;;;;;;;108.38;39.35;;;;;;;;;;6267337;28;20053;-62
2022/10/22 17:33:05;;;;;;;118.53;41.13;;;;;;;;;;6270474;28;20048;-63
2022/10/22 17:36:09;;;;;;;130.63;48.70;;;;;;;;;;6266026;28;20063;-61
2022/10/22 17:39:15;;;;;;;146.52;58.92;;;;;;;;;;6270491;28;20144;-62
2022/10/22 17:42:16;;;;;;;106.03;42.92;;;;;;;;;;6270868;28;20144;-64
2022/10/22 17:45:17;;;;;;;121.47;49.22;;;;;;;;;;6271790;28;20049;-64
2022/10/22 17:48:18;;;;;;;112.00;42.72;;;;;;;;;;6269226;28;20118;-61
2022/10/22 17:51:19;;;;;;;115.05;41.72;;;;;;;;;;6270259;28;20484;-64
2022/10/22 17:54:19;;;;;;;120.78;45.10;;;;;;;;;;6269441;28;20052;-65